sensor_id;sensor_type;location;lat;lon;timestamp;pressure;altitude;pressure_sealevel;temperature;humidity
44309;BME280;30022;55.846;37.340;2023-06-14T00:00:11;46612.28;;;-143.51;84.71
44309;BME280;30022;55.846;37.340;2023-06-14T00:02:38;46606.34;;;-143.51;85.12
44309;BME280;30022;55.846;37.340;2023-06-14T00:05:04;46594.50;;;-143.51;87.52
44309;BME280;30022;55.846;37.340;2023-06-14T00:07:34;46590.53;;;-143.51;88.24
44309;BME280;30022;55.846;37.340;2023-06-14T00:10:01;46572.78;;;-143.51;87.79
44309;BME280;30022;55.846;37.340;2023-06-14T00:12:26;46596.47;;;-143.51;87.70
44309;BME280;30022;55.846;37.340;2023-06-14T00:14:52;46596.47;;;-143.51;87.98
44309;BME280;30022;55.846;37.340;2023-06-14T00:17:17;46604.38;;;-143.51;87.35
44309;BME280;30022;55.846;37.340;2023-06-14T00:19:43;46620.16;;;-143.51;87.87
44309;BME280;30022;55.846;37.340;2023-06-14T00:22:09;46628.06;;;-143.51;89.31
44309;BME280;30022;55.846;37.340;2023-06-14T00:24:34;46590.53;;;-143.51;88.52
44309;BME280;30022;55.846;37.340;2023-06-14T00:27:00;46610.28;;;-143.51;88.40
44309;BME280;30022;55.846;37.340;2023-06-14T00:29:27;46584.63;;;-143.51;88.48
44309;BME280;30022;55.846;37.340;2023-06-14T00:31:53;46602.41;;;-143.51;89.27
44309;BME280;30022;55.846;37.340;2023-06-14T00:34:18;46596.47;;;-143.51;89.78
44309;BME280;30022;55.846;37.340;2023-06-14T00:36:44;46610.28;;;-143.51;89.48
44309;BME280;30022;55.846;37.340;2023-06-14T00:39:09;46596.47;;;-143.51;89.31
44309;BME280;30022;55.846;37.340;2023-06-14T00:41:35;46600.41;;;-143.51;90.74
44309;BME280;30022;55.846;37.340;2023-06-14T00:44:00;46594.50;;;-143.51;92.64
44309;BME280;30022;55.846;37.340;2023-06-14T00:46:26;46600.41;;;-143.51;92.30
44309;BME280;30022;55.846;37.340;2023-06-14T00:48:53;46596.47;;;-143.51;93.56
44309;BME280;30022;55.846;37.340;2023-06-14T00:51:19;46558.94;;;-143.51;94.25
44309;BME280;30022;55.846;37.340;2023-06-14T00:53:45;46598.44;;;-143.51;95.82
44309;BME280;30022;55.846;37.340;2023-06-14T00:56:13;46570.78;;;-143.51;95.20
44309;BME280;30022;55.846;37.340;2023-06-14T00:58:41;46592.53;;;-143.51;99.09
44309;BME280;30022;55.846;37.340;2023-06-14T01:01:06;46610.28;;;-143.51;98.29
44309;BME280;30022;55.846;37.340;2023-06-14T01:03:33;46643.88;;;-143.51;100.00
44309;BME280;30022;55.846;37.340;2023-06-14T01:06:01;46616.22;;;-143.51;100.00
44309;BME280;30022;55.846;37.340;2023-06-14T01:11:16;46618.19;;;-143.51;100.00
44309;BME280;30022;55.846;37.340;2023-06-14T01:13:45;46634.00;;;-143.51;99.37
44309;BME280;30022;55.846;37.340;2023-06-14T01:16:11;46578.69;;;-143.51;98.00
44309;BME280;30022;55.846;37.340;2023-06-14T01:18:37;46584.63;;;-143.51;97.87
44309;BME280;30022;55.846;37.340;2023-06-14T01:21:03;46606.34;;;-143.51;97.29
44309;BME280;30022;55.846;37.340;2023-06-14T01:23:32;46632.03;;;-143.51;99.94
44309;BME280;30022;55.846;37.340;2023-06-14T01:25:58;46604.38;;;-143.51;99.13
44309;BME280;30022;55.846;37.340;2023-06-14T01:28:24;46604.38;;;-143.51;98.34
44309;BME280;30022;55.846;37.340;2023-06-14T01:30:53;46588.56;;;-143.51;97.49
44309;BME280;30022;55.846;37.340;2023-06-14T01:33:24;46602.41;;;-143.51;99.02
44309;BME280;30022;55.846;37.340;2023-06-14T01:35:51;46608.31;;;-143.51;100.00
44309;BME280;30022;55.846;37.340;2023-06-14T01:38:18;46570.78;;;-143.51;99.86
44309;BME280;30022;55.846;37.340;2023-06-14T01:40:44;46606.34;;;-143.51;99.53
44309;BME280;30022;55.846;37.340;2023-06-14T01:43:11;46655.72;;;-143.51;100.00
44309;BME280;30022;55.846;37.340;2023-06-14T01:45:38;46641.88;;;-143.51;100.00
44309;BME280;30022;55.846;37.340;2023-06-14T01:48:05;46606.34;;;-143.51;100.00
44309;BME280;30022;55.846;37.340;2023-06-14T01:50:31;46608.31;;;-143.51;99.94
44309;BME280;30022;55.846;37.340;2023-06-14T01:52:57;46604.38;;;-143.51;100.00
44309;BME280;30022;55.846;37.340;2023-06-14T01:55:22;46626.09;;;-143.51;100.00
44309;BME280;30022;55.846;37.340;2023-06-14T01:57:50;46616.22;;;-143.51;100.00
44309;BME280;30022;55.846;37.340;2023-06-14T02:00:16;46624.13;;;-143.51;100.00
44309;BME280;30022;55.846;37.340;2023-06-14T02:02:43;46687.31;;;-143.51;100.00
44309;BME280;30022;55.846;37.340;2023-06-14T02:05:09;46649.78;;;-143.51;100.00
44309;BME280;30022;55.846;37.340;2023-06-14T02:07:35;46620.16;;;-143.51;100.00
44309;BME280;30022;55.846;37.340;2023-06-14T02:10:01;46651.75;;;-143.51;100.00
44309;BME280;30022;55.846;37.340;2023-06-14T02:12:29;46645.84;;;-143.51;100.00
44309;BME280;30022;55.846;37.340;2023-06-14T02:14:56;46634.00;;;-143.51;100.00
44309;BME280;30022;55.846;37.340;2023-06-14T02:17:23;46647.81;;;-143.51;100.00
44309;BME280;30022;55.846;37.340;2023-06-14T02:19:48;46634.00;;;-143.51;100.00
44309;BME280;30022;55.846;37.340;2023-06-14T02:22:15;46641.88;;;-143.51;100.00
44309;BME280;30022;55.846;37.340;2023-06-14T02:24:42;46665.59;;;-143.51;100.00
44309;BME280;30022;55.846;37.340;2023-06-14T02:27:08;46637.94;;;-143.51;100.00
44309;BME280;30022;55.846;37.340;2023-06-14T02:29:36;46665.59;;;-143.51;100.00
44309;BME280;30022;55.846;37.340;2023-06-14T02:32:03;46626.09;;;-143.51;100.00
44309;BME280;30022;55.846;37.340;2023-06-14T02:34:29;46641.88;;;-143.51;100.00
44309;BME280;30022;55.846;37.340;2023-06-14T02:36:54;46697.19;;;-143.51;100.00
44309;BME280;30022;55.846;37.340;2023-06-14T02:39:20;46665.59;;;-143.51;100.00
44309;BME280;30022;55.846;37.340;2023-06-14T02:41:48;46671.50;;;-143.51;100.00
44309;BME280;30022;55.846;37.340;2023-06-14T02:44:14;46677.44;;;-143.51;100.00
44309;BME280;30022;55.846;37.340;2023-06-14T02:46:40;46641.88;;;-143.51;100.00
44309;BME280;30022;55.846;37.340;2023-06-14T02:49:06;46665.59;;;-143.51;100.00
44309;BME280;30022;55.846;37.340;2023-06-14T02:51:31;46647.81;;;-143.51;100.00
44309;BME280;30022;55.846;37.340;2023-06-14T02:53:57;46687.31;;;-143.51;100.00
44309;BME280;30022;55.846;37.340;2023-06-14T02:56:23;46679.41;;;-143.51;100.00
44309;BME280;30022;55.846;37.340;2023-06-14T02:58:48;46713.00;;;-143.51;100.00
44309;BME280;30022;55.846;37.340;2023-06-14T03:01:14;46701.13;;;-143.51;100.00
44309;BME280;30022;55.846;37.340;2023-06-14T03:03:40;46713.00;;;-143.51;100.00
44309;BME280;30022;55.846;37.340;2023-06-14T03:06:06;46707.06;;;-143.51;100.00
44309;BME280;30022;55.846;37.340;2023-06-14T03:08:35;46703.13;;;-143.51;100.00
44309;BME280;30022;55.846;37.340;2023-06-14T03:11:08;46665.59;;;-143.51;100.00
44309;BME280;30022;55.846;37.340;2023-06-14T03:13:35;46701.13;;;-143.51;100.00
44309;BME280;30022;55.846;37.340;2023-06-14T03:16:02;46697.19;;;-143.51;100.00
44309;BME280;30022;55.846;37.340;2023-06-14T03:18:30;46701.13;;;-143.51;100.00
44309;BME280;30022;55.846;37.340;2023-06-14T03:20:56;46693.25;;;-143.51;100.00
44309;BME280;30022;55.846;37.340;2023-06-14T03:23:24;46701.13;;;-143.51;100.00
44309;BME280;30022;55.846;37.340;2023-06-14T03:25:50;46681.38;;;-143.51;100.00
44309;BME280;30022;55.846;37.340;2023-06-14T03:28:16;46736.69;;;-143.51;100.00
44309;BME280;30022;55.846;37.340;2023-06-14T03:30:42;46728.78;;;-143.51;100.00
44309;BME280;30022;55.846;37.340;2023-06-14T03:33:08;46730.75;;;-143.51;100.00
44309;BME280;30022;55.846;37.340;2023-06-14T03:35:37;46720.88;;;-143.51;100.00
44309;BME280;30022;55.846;37.340;2023-06-14T03:38:03;46811.72;;;-143.51;100.00
44309;BME280;30022;55.846;37.340;2023-06-14T03:40:29;46780.13;;;-143.51;100.00
44309;BME280;30022;55.846;37.340;2023-06-14T03:43:00;46776.19;;;-143.51;100.00
44309;BME280;30022;55.846;37.340;2023-06-14T03:45:27;46782.09;;;-143.51;100.00
44309;BME280;30022;55.846;37.340;2023-06-14T03:47:52;46742.59;;;-143.51;100.00
44309;BME280;30022;55.846;37.340;2023-06-14T03:50:18;46744.59;;;-143.51;100.00
44309;BME280;30022;55.846;37.340;2023-06-14T03:52:44;46788.03;;;-143.51;100.00
44309;BME280;30022;55.846;37.340;2023-06-14T03:55:10;46807.78;;;-143.51;100.00
44309;BME280;30022;55.846;37.340;2023-06-14T03:57:39;46780.13;;;-143.51;100.00
44309;BME280;30022;55.846;37.340;2023-06-14T04:00:09;46774.22;;;-143.51;100.00
44309;BME280;30022;55.846;37.340;2023-06-14T04:02:39;46807.78;;;-143.51;100.00
44309;BME280;30022;55.846;37.340;2023-06-14T04:05:05;46791.97;;;-143.51;100.00
44309;BME280;30022;55.846;37.340;2023-06-14T04:07:35;46782.09;;;-143.51;100.00
44309;BME280;30022;55.846;37.340;2023-06-14T04:10:08;46782.09;;;-143.51;100.00
44309;BME280;30022;55.846;37.340;2023-06-14T04:12:33;46766.31;;;-143.51;100.00
44309;BME280;30022;55.846;37.340;2023-06-14T04:14:59;46799.88;;;-143.51;100.00
44309;BME280;30022;55.846;37.340;2023-06-14T04:17:26;46790.00;;;-143.51;100.00
44309;BME280;30022;55.846;37.340;2023-06-14T04:19:52;46766.31;;;-143.51;100.00
44309;BME280;30022;55.846;37.340;2023-06-14T04:22:17;46776.19;;;-143.51;100.00
44309;BME280;30022;55.846;37.340;2023-06-14T04:24:43;46770.25;;;-143.51;100.00
44309;BME280;30022;55.846;37.340;2023-06-14T04:27:10;46780.13;;;-143.51;100.00
44309;BME280;30022;55.846;37.340;2023-06-14T04:29:37;46793.97;;;-143.51;100.00
44309;BME280;30022;55.846;37.340;2023-06-14T04:32:06;46746.56;;;-143.51;100.00
44309;BME280;30022;55.846;37.340;2023-06-14T04:34:37;46790.00;;;-143.51;100.00
44309;BME280;30022;55.846;37.340;2023-06-14T04:37:03;46750.50;;;-143.51;100.00
44309;BME280;30022;55.846;37.340;2023-06-14T04:39:35;46758.41;;;-143.51;100.00
44309;BME280;30022;55.846;37.340;2023-06-14T04:42:01;46774.22;;;-143.51;100.00
44309;BME280;30022;55.846;37.340;2023-06-14T04:44:29;46740.63;;;-143.51;100.00
44309;BME280;30022;55.846;37.340;2023-06-14T04:46:58;46786.06;;;-143.51;100.00
44309;BME280;30022;55.846;37.340;2023-06-14T04:49:25;46738.66;;;-143.51;100.00
44309;BME280;30022;55.846;37.340;2023-06-14T04:51:51;46734.72;;;-143.51;100.00
44309;BME280;30022;55.846;37.340;2023-06-14T04:54:23;46738.66;;;-143.51;100.00
44309;BME280;30022;55.846;37.340;2023-06-14T04:56:51;46752.47;;;-143.51;99.76
44309;BME280;30022;55.846;37.340;2023-06-14T04:59:19;46732.75;;;-143.51;99.54
44309;BME280;30022;55.846;37.340;2023-06-14T05:01:45;46742.59;;;-143.51;99.43
44309;BME280;30022;55.846;37.340;2023-06-14T05:04:14;46760.38;;;-143.51;99.13
44309;BME280;30022;55.846;37.340;2023-06-14T05:06:41;46728.78;;;-143.51;98.64
44309;BME280;30022;55.846;37.340;2023-06-14T05:09:07;46746.56;;;-143.51;97.51
44309;BME280;30022;55.846;37.340;2023-06-14T05:11:32;46713.00;;;-143.51;97.29
44309;BME280;30022;55.846;37.340;2023-06-14T05:13:58;46740.63;;;-143.51;97.33
44309;BME280;30022;55.846;37.340;2023-06-14T05:16:24;46703.13;;;-143.51;96.25
44309;BME280;30022;55.846;37.340;2023-06-14T05:18:50;46738.66;;;-143.51;96.18
44309;BME280;30022;55.846;37.340;2023-06-14T05:21:17;46728.78;;;-143.51;95.40
44309;BME280;30022;55.846;37.340;2023-06-14T05:23:44;46728.78;;;-143.51;95.36
44309;BME280;30022;55.846;37.340;2023-06-14T05:26:10;46726.81;;;-143.51;95.46
44309;BME280;30022;55.846;37.340;2023-06-14T05:28:36;46746.56;;;-143.51;94.89
44309;BME280;30022;55.846;37.340;2023-06-14T05:31:01;46720.88;;;-143.51;95.05
44309;BME280;30022;55.846;37.340;2023-06-14T05:33:27;46730.75;;;-143.51;94.52
44309;BME280;30022;55.846;37.340;2023-06-14T05:35:52;46770.25;;;-143.51;94.06
44309;BME280;30022;55.846;37.340;2023-06-14T05:38:18;46734.72;;;-143.51;92.37
44309;BME280;30022;55.846;37.340;2023-06-14T05:40:43;46740.63;;;-143.51;93.23
44309;BME280;30022;55.846;37.340;2023-06-14T05:43:09;46754.47;;;-143.51;92.30
44309;BME280;30022;55.846;37.340;2023-06-14T05:45:35;46756.44;;;-143.51;92.07
44309;BME280;30022;55.846;37.340;2023-06-14T05:48:01;46738.66;;;-143.51;90.62
44309;BME280;30022;55.846;37.340;2023-06-14T05:50:26;46756.44;;;-143.51;91.05
44309;BME280;30022;55.846;37.340;2023-06-14T05:52:53;46734.72;;;-143.51;90.27
44309;BME280;30022;55.846;37.340;2023-06-14T05:55:18;46740.63;;;-143.51;89.76
44309;BME280;30022;55.846;37.340;2023-06-14T05:57:45;46730.75;;;-143.51;88.43
44309;BME280;30022;55.846;37.340;2023-06-14T06:00:10;46744.59;;;-143.51;87.65
44309;BME280;30022;55.846;37.340;2023-06-14T06:02:37;46742.59;;;-143.51;87.11
44309;BME280;30022;55.846;37.340;2023-06-14T06:05:03;46730.75;;;-143.51;86.51
44309;BME280;30022;55.846;37.340;2023-06-14T06:07:29;46716.94;;;-143.51;86.49
44309;BME280;30022;55.846;37.340;2023-06-14T06:09:54;46742.59;;;-143.51;85.74
44309;BME280;30022;55.846;37.340;2023-06-14T06:12:20;46748.53;;;-143.51;85.97
44309;BME280;30022;55.846;37.340;2023-06-14T06:14:45;46736.69;;;-143.51;85.47
44309;BME280;30022;55.846;37.340;2023-06-14T06:17:11;46714.97;;;-143.51;86.03
44309;BME280;30022;55.846;37.340;2023-06-14T06:19:36;46734.72;;;-143.51;85.69
44309;BME280;30022;55.846;37.340;2023-06-14T06:22:02;46740.63;;;-143.51;84.13
44309;BME280;30022;55.846;37.340;2023-06-14T06:24:30;46778.16;;;-143.51;82.96
44309;BME280;30022;55.846;37.340;2023-06-14T06:26:55;46738.66;;;-143.51;82.72
44309;BME280;30022;55.846;37.340;2023-06-14T06:29:21;46742.59;;;-143.51;82.11
44309;BME280;30022;55.846;37.340;2023-06-14T06:31:46;46720.88;;;-143.51;80.06
44309;BME280;30022;55.846;37.340;2023-06-14T06:34:12;46764.34;;;-143.51;80.58
44309;BME280;30022;55.846;37.340;2023-06-14T06:36:37;46748.53;;;-143.51;80.92
44309;BME280;30022;55.846;37.340;2023-06-14T06:39:03;46748.53;;;-143.51;81.01
44309;BME280;30022;55.846;37.340;2023-06-14T06:41:38;46750.50;;;-143.51;76.66
44309;BME280;30022;55.846;37.340;2023-06-14T06:44:08;46744.59;;;-143.51;77.52
44309;BME280;30022;55.846;37.340;2023-06-14T06:46:36;46740.63;;;-143.51;76.66
44309;BME280;30022;55.846;37.340;2023-06-14T06:49:05;46730.75;;;-143.51;73.74
44309;BME280;30022;55.846;37.340;2023-06-14T06:51:31;46738.66;;;-143.51;73.57
44309;BME280;30022;55.846;37.340;2023-06-14T06:53:56;46740.63;;;-143.51;72.92
44309;BME280;30022;55.846;37.340;2023-06-14T06:56:22;46754.47;;;-143.51;72.75
44309;BME280;30022;55.846;37.340;2023-06-14T06:58:51;46754.47;;;-143.51;73.18
44309;BME280;30022;55.846;37.340;2023-06-14T07:01:17;46756.44;;;-143.51;73.03
44309;BME280;30022;55.846;37.340;2023-06-14T07:03:44;46750.50;;;-143.51;72.62
44309;BME280;30022;55.846;37.340;2023-06-14T07:06:09;46746.56;;;-143.51;73.26
44309;BME280;30022;55.846;37.340;2023-06-14T07:08:35;46740.63;;;-143.51;72.48
44309;BME280;30022;55.846;37.340;2023-06-14T07:11:01;46772.22;;;-143.51;72.29
44309;BME280;30022;55.846;37.340;2023-06-14T07:13:27;46748.53;;;-143.51;72.11
44309;BME280;30022;55.846;37.340;2023-06-14T07:15:56;46744.59;;;-143.51;72.65
44309;BME280;30022;55.846;37.340;2023-06-14T07:18:22;46752.47;;;-143.51;71.30
44309;BME280;30022;55.846;37.340;2023-06-14T07:20:48;46738.66;;;-143.51;71.30
44309;BME280;30022;55.846;37.340;2023-06-14T07:23:13;46764.34;;;-143.51;71.49
44309;BME280;30022;55.846;37.340;2023-06-14T07:25:39;46776.19;;;-143.51;70.14
44309;BME280;30022;55.846;37.340;2023-06-14T07:28:04;46768.28;;;-143.51;70.48
44309;BME280;30022;55.846;37.340;2023-06-14T07:30:30;46758.41;;;-143.51;70.21
44309;BME280;30022;55.846;37.340;2023-06-14T07:32:55;46776.19;;;-143.51;70.52
44309;BME280;30022;55.846;37.340;2023-06-14T07:35:21;46764.34;;;-143.51;69.71
44309;BME280;30022;55.846;37.340;2023-06-14T07:37:47;46793.97;;;-143.51;69.03
44309;BME280;30022;55.846;37.340;2023-06-14T07:40:12;46762.34;;;-143.51;68.82
44309;BME280;30022;55.846;37.340;2023-06-14T07:42:41;46752.47;;;-143.51;69.43
44309;BME280;30022;55.846;37.340;2023-06-14T07:45:07;46752.47;;;-143.51;69.61
44309;BME280;30022;55.846;37.340;2023-06-14T07:47:33;46772.22;;;-143.51;69.41
44309;BME280;30022;55.846;37.340;2023-06-14T07:49:58;46778.16;;;-143.51;69.23
44309;BME280;30022;55.846;37.340;2023-06-14T07:52:25;46740.63;;;-143.51;68.14
44309;BME280;30022;55.846;37.340;2023-06-14T07:54:50;46756.44;;;-143.51;69.03
44309;BME280;30022;55.846;37.340;2023-06-14T07:57:16;46758.41;;;-143.51;68.87
44309;BME280;30022;55.846;37.340;2023-06-14T07:59:42;46776.19;;;-143.51;69.37
44309;BME280;30022;55.846;37.340;2023-06-14T08:02:07;46770.25;;;-143.51;69.41
44309;BME280;30022;55.846;37.340;2023-06-14T08:04:33;46788.03;;;-143.51;69.18
44309;BME280;30022;55.846;37.340;2023-06-14T08:06:59;46791.97;;;-143.51;69.40
44309;BME280;30022;55.846;37.340;2023-06-14T08:09:26;46780.13;;;-143.51;69.51
44309;BME280;30022;55.846;37.340;2023-06-14T08:11:54;46841.34;;;-143.51;69.29
44309;BME280;30022;55.846;37.340;2023-06-14T08:14:20;46795.94;;;-143.51;68.34
44309;BME280;30022;55.846;37.340;2023-06-14T08:16:46;46791.97;;;-143.51;68.20
44309;BME280;30022;55.846;37.340;2023-06-14T08:19:11;46803.84;;;-143.51;68.37
44309;BME280;30022;55.846;37.340;2023-06-14T08:21:37;46809.75;;;-143.51;68.57
44309;BME280;30022;55.846;37.340;2023-06-14T08:24:02;46819.63;;;-143.51;67.00
44309;BME280;30022;55.846;37.340;2023-06-14T08:26:29;46774.22;;;-143.51;67.60
44309;BME280;30022;55.846;37.340;2023-06-14T08:28:55;46797.91;;;-143.51;67.55
44309;BME280;30022;55.846;37.340;2023-06-14T08:31:21;46776.19;;;-143.51;66.77
44309;BME280;30022;55.846;37.340;2023-06-14T08:33:46;46827.53;;;-143.51;66.96
44309;BME280;30022;55.846;37.340;2023-06-14T08:36:12;46833.47;;;-143.51;67.18
44309;BME280;30022;55.846;37.340;2023-06-14T08:38:38;46807.78;;;-143.51;66.26
44309;BME280;30022;55.846;37.340;2023-06-14T08:41:04;46823.59;;;-143.51;65.48
44309;BME280;30022;55.846;37.340;2023-06-14T08:43:31;46803.84;;;-143.51;64.41
44309;BME280;30022;55.846;37.340;2023-06-14T08:46:00;46795.94;;;-143.51;64.25
44309;BME280;30022;55.846;37.340;2023-06-14T08:48:27;46807.78;;;-143.51;64.28
44309;BME280;30022;55.846;37.340;2023-06-14T08:50:54;46803.84;;;-143.51;64.57
44309;BME280;30022;55.846;37.340;2023-06-14T08:53:35;46799.88;;;-143.51;64.20
44309;BME280;30022;55.846;37.340;2023-06-14T08:56:07;46795.94;;;-143.51;64.42
44309;BME280;30022;55.846;37.340;2023-06-14T08:58:42;46823.59;;;-143.51;64.08
44309;BME280;30022;55.846;37.340;2023-06-14T09:01:10;46803.84;;;-143.51;63.73
44309;BME280;30022;55.846;37.340;2023-06-14T09:03:43;46827.53;;;-143.51;63.19
44309;BME280;30022;55.846;37.340;2023-06-14T09:06:10;46825.56;;;-143.51;63.25
44309;BME280;30022;55.846;37.340;2023-06-14T09:08:42;46788.03;;;-143.51;62.43
44309;BME280;30022;55.846;37.340;2023-06-14T09:11:10;46833.47;;;-143.51;62.33
44309;BME280;30022;55.846;37.340;2023-06-14T09:13:36;46807.78;;;-143.51;63.30
44309;BME280;30022;55.846;37.340;2023-06-14T09:16:02;46823.59;;;-143.51;63.65
44309;BME280;30022;55.846;37.340;2023-06-14T09:18:37;46803.84;;;-143.51;63.68
44309;BME280;30022;55.846;37.340;2023-06-14T09:21:06;46811.72;;;-143.51;63.12
44309;BME280;30022;55.846;37.340;2023-06-14T09:23:39;46805.81;;;-143.51;62.30
44309;BME280;30022;55.846;37.340;2023-06-14T09:26:12;46815.69;;;-143.51;62.84
44309;BME280;30022;55.846;37.340;2023-06-14T09:28:44;46791.97;;;-143.51;63.38
44309;BME280;30022;55.846;37.340;2023-06-14T09:31:11;46833.47;;;-143.51;63.64
44309;BME280;30022;55.846;37.340;2023-06-14T09:33:37;46815.69;;;-143.51;63.04
44309;BME280;30022;55.846;37.340;2023-06-14T09:36:03;46807.78;;;-143.51;62.33
44309;BME280;30022;55.846;37.340;2023-06-14T09:38:30;46821.59;;;-143.51;62.35
44309;BME280;30022;55.846;37.340;2023-06-14T09:40:56;46825.56;;;-143.51;62.84
44309;BME280;30022;55.846;37.340;2023-06-14T09:43:22;46851.22;;;-143.51;61.62
44309;BME280;30022;55.846;37.340;2023-06-14T09:45:48;46847.28;;;-143.51;61.49
44309;BME280;30022;55.846;37.340;2023-06-14T09:48:14;46841.34;;;-143.51;60.59
44309;BME280;30022;55.846;37.340;2023-06-14T09:50:44;46851.22;;;-143.51;61.03
44309;BME280;30022;55.846;37.340;2023-06-14T09:53:11;46845.31;;;-143.51;61.32
44309;BME280;30022;55.846;37.340;2023-06-14T09:55:37;46857.16;;;-143.51;61.55
44309;BME280;30022;55.846;37.340;2023-06-14T09:58:05;46827.53;;;-143.51;61.72
44309;BME280;30022;55.846;37.340;2023-06-14T10:00:31;46807.78;;;-143.51;62.29
44309;BME280;30022;55.846;37.340;2023-06-14T10:03:00;46827.53;;;-143.51;62.65
44309;BME280;30022;55.846;37.340;2023-06-14T10:05:28;46841.34;;;-143.51;62.88
44309;BME280;30022;55.846;37.340;2023-06-14T10:08:03;46867.03;;;-143.51;62.67
44309;BME280;30022;55.846;37.340;2023-06-14T10:10:29;46835.44;;;-143.51;61.77
44309;BME280;30022;55.846;37.340;2023-06-14T10:12:56;46859.13;;;-143.51;62.39
44309;BME280;30022;55.846;37.340;2023-06-14T10:18:11;46863.09;;;-143.51;60.83
44309;BME280;30022;55.846;37.340;2023-06-14T10:21:00;46835.44;;;-143.51;60.87
44309;BME280;30022;55.846;37.340;2023-06-14T10:23:29;46863.09;;;-143.51;60.87
44309;BME280;30022;55.846;37.340;2023-06-14T10:25:57;46835.44;;;-143.51;59.58
44309;BME280;30022;55.846;37.340;2023-06-14T10:28:23;46829.50;;;-143.51;59.80
44309;BME280;30022;55.846;37.340;2023-06-14T10:31:02;46839.38;;;-143.51;59.01
44309;BME280;30022;55.846;37.340;2023-06-14T10:33:31;46782.09;;;-143.51;59.57
44309;BME280;30022;55.846;37.340;2023-06-14T10:36:07;46829.50;;;-143.51;59.10
44309;BME280;30022;55.846;37.340;2023-06-14T10:38:33;46811.72;;;-143.51;58.96
44309;BME280;30022;55.846;37.340;2023-06-14T10:40:59;46835.44;;;-143.51;59.33
44309;BME280;30022;55.846;37.340;2023-06-14T10:43:25;46799.88;;;-143.51;57.57
44309;BME280;30022;55.846;37.340;2023-06-14T10:48:39;46845.31;;;-143.51;56.69
44309;BME280;30022;55.846;37.340;2023-06-14T10:51:05;46825.56;;;-143.51;56.26
44309;BME280;30022;55.846;37.340;2023-06-14T10:53:39;46839.38;;;-143.51;56.10
44309;BME280;30022;55.846;37.340;2023-06-14T10:56:08;46841.34;;;-143.51;55.76
44309;BME280;30022;55.846;37.340;2023-06-14T10:58:33;46819.63;;;-143.51;56.28
44309;BME280;30022;55.846;37.340;2023-06-14T11:00:59;46851.22;;;-143.51;55.91
44309;BME280;30022;55.846;37.340;2023-06-14T11:03:31;46863.09;;;-143.51;56.19
44309;BME280;30022;55.846;37.340;2023-06-14T11:06:02;46855.19;;;-143.51;56.69
44309;BME280;30022;55.846;37.340;2023-06-14T11:11:06;46857.16;;;-143.51;57.86
44309;BME280;30022;55.846;37.340;2023-06-14T11:13:32;46819.63;;;-143.51;57.17
44309;BME280;30022;55.846;37.340;2023-06-14T11:15:57;46863.09;;;-143.51;56.99
44309;BME280;30022;55.846;37.340;2023-06-14T11:18:23;46861.09;;;-143.51;57.30
44309;BME280;30022;55.846;37.340;2023-06-14T11:20:55;46857.16;;;-143.51;55.87
44309;BME280;30022;55.846;37.340;2023-06-14T11:23:21;46867.03;;;-143.51;56.19
44309;BME280;30022;55.846;37.340;2023-06-14T11:25:50;46880.84;;;-143.51;54.83
44309;BME280;30022;55.846;37.340;2023-06-14T11:28:16;46892.72;;;-143.51;55.07
44309;BME280;30022;55.846;37.340;2023-06-14T11:30:42;46890.72;;;-143.51;52.63
44309;BME280;30022;55.846;37.340;2023-06-14T11:33:09;46857.16;;;-143.51;53.66
44309;BME280;30022;55.846;37.340;2023-06-14T11:35:35;46855.19;;;-143.51;54.40
44309;BME280;30022;55.846;37.340;2023-06-14T11:38:01;46876.91;;;-143.51;54.75
44309;BME280;30022;55.846;37.340;2023-06-14T11:40:27;46886.78;;;-143.51;54.37
44309;BME280;30022;55.846;37.340;2023-06-14T11:42:59;46878.88;;;-143.51;55.56
44309;BME280;30022;55.846;37.340;2023-06-14T11:45:26;46859.13;;;-143.51;55.09
44309;BME280;30022;55.846;37.340;2023-06-14T11:47:53;46861.09;;;-143.51;55.06
44309;BME280;30022;55.846;37.340;2023-06-14T11:50:19;46880.84;;;-143.51;54.81
44309;BME280;30022;55.846;37.340;2023-06-14T11:52:51;46924.31;;;-143.51;54.91
44309;BME280;30022;55.846;37.340;2023-06-14T11:55:17;46857.16;;;-143.51;54.61
44309;BME280;30022;55.846;37.340;2023-06-14T11:57:43;46876.91;;;-143.51;54.40
44309;BME280;30022;55.846;37.340;2023-06-14T12:00:08;46890.72;;;-143.51;53.93
44309;BME280;30022;55.846;37.340;2023-06-14T12:02:37;46888.75;;;-143.51;53.79
44309;BME280;30022;55.846;37.340;2023-06-14T12:05:04;46888.75;;;-143.51;54.42
44309;BME280;30022;55.846;37.340;2023-06-14T12:07:30;46876.91;;;-143.51;54.21
44309;BME280;30022;55.846;37.340;2023-06-14T12:12:22;46878.88;;;-143.51;51.95
44309;BME280;30022;55.846;37.340;2023-06-14T12:14:51;46890.72;;;-143.51;52.64
44309;BME280;30022;55.846;37.340;2023-06-14T12:17:17;46900.59;;;-143.51;52.99
44309;BME280;30022;55.846;37.340;2023-06-14T12:19:46;46910.47;;;-143.51;52.88
44309;BME280;30022;55.846;37.340;2023-06-14T12:22:12;46890.72;;;-143.51;52.12
44309;BME280;30022;55.846;37.340;2023-06-14T12:24:38;46916.41;;;-143.51;52.60
44309;BME280;30022;55.846;37.340;2023-06-14T12:27:04;46890.72;;;-143.51;52.16
44309;BME280;30022;55.846;37.340;2023-06-14T12:29:30;46902.59;;;-143.51;52.29
44309;BME280;30022;55.846;37.340;2023-06-14T12:31:56;46924.31;;;-143.51;51.41
44309;BME280;30022;55.846;37.340;2023-06-14T12:34:23;46908.50;;;-143.51;51.29
44309;BME280;30022;55.846;37.340;2023-06-14T12:36:49;46906.53;;;-143.51;51.94
44309;BME280;30022;55.846;37.340;2023-06-14T12:39:15;46922.34;;;-143.51;52.01